Time;durP1;ratioP1;P1;durP2;ratioP2;P2;SDS_P1;SDS_P2;PMS_P1;PMS_P2;Temp;Humidity;BMP_temperature;BMP_pressure;BME280_temperature;BME280_humidity;BME280_pressure;Samples;Min_cycle;Max_cycle;Signal;HPM_P1;HPM_P2
2023/07/30 00:03:36;;;;;;;5.15;3.12;;;15.00;99.90;;;;;;7287402;32;20108;-57
2023/07/30 00:07:38;;;;;;;11.52;3.90;;;14.90;99.90;;;;;;7286859;32;20170;-57
2023/07/30 00:11:40;;;;;;;9.88;4.18;;;14.80;99.90;;;;;;7274455;32;20202;-57
2023/07/30 00:15:42;;;;;;;7.57;3.25;;;14.80;99.90;;;;;;7288549;32;20760;-57
2023/07/30 00:19:43;;;;;;;9.35;4.00;;;14.70;99.90;;;;;;7282991;32;20122;-57
2023/07/30 00:23:45;;;;;;;11.48;3.83;;;14.70;99.90;;;;;;7283775;32;20107;-57
2023/07/30 00:27:47;;;;;;;12.60;3.85;;;14.60;99.90;;;;;;7281496;32;20462;-57
2023/07/30 00:31:49;;;;;;;7.18;3.40;;;14.60;99.90;;;;;;7281451;32;20113;-56
2023/07/30 00:35:54;;;;;;;7.12;3.40;;;14.50;99.90;;;;;;7279414;32;20207;-57
2023/07/30 00:39:56;;;;;;;6.25;3.35;;;14.50;99.90;;;;;;7289245;32;20198;-57
2023/07/30 00:43:57;;;;;;;10.32;3.78;;;14.50;99.90;;;;;;7280846;32;20518;-56
2023/07/30 00:47:59;;;;;;;6.95;3.58;;;14.50;99.90;;;;;;7285421;32;20108;-57
2023/07/30 00:52:02;;;;;;;7.82;3.67;;;14.50;99.90;;;;;;7283814;32;20290;-57
2023/07/30 00:56:04;;;;;;;10.60;3.60;;;14.50;99.90;;;;;;7285002;32;20097;-56
2023/07/30 01:00:08;;;;;;;9.52;3.67;;;14.40;99.90;;;;;;7280856;32;20104;-56
2023/07/30 01:04:10;;;;;;;5.60;3.20;;;14.30;99.90;;;;;;7281611;32;20203;-57
2023/07/30 01:08:12;;;;;;;8.32;3.40;;;14.20;99.90;;;;;;7285293;32;20312;-57
2023/07/30 01:12:16;;;;;;;6.68;3.78;;;14.10;99.90;;;;;;7282661;32;20096;-57
2023/07/30 01:16:18;;;;;;;4.57;3.03;;;14.10;99.90;;;;;;7288481;32;20503;-57
2023/07/30 01:20:20;;;;;;;8.30;3.10;;;14.10;99.90;;;;;;7286272;32;20352;-57
2023/07/30 01:24:22;;;;;;;9.82;2.72;;;14.00;99.90;;;;;;7283796;32;20210;-57
2023/07/30 01:28:24;;;;;;;6.43;2.87;;;14.00;99.90;;;;;;7276601;32;20100;-57
2023/07/30 01:32:28;;;;;;;7.10;3.47;;;14.00;99.90;;;;;;7279454;32;20466;-56
2023/07/30 01:36:32;;;;;;;8.32;4.05;;;14.10;99.90;;;;;;7278934;32;20100;-56
2023/07/30 01:40:33;;;;;;;4.68;3.00;;;14.20;99.90;;;;;;7282077;32;20124;-56
2023/07/30 01:44:35;;;;;;;6.78;3.42;;;14.30;99.90;;;;;;7282158;32;20177;-57
2023/07/30 01:48:37;;;;;;;7.32;3.62;;;14.50;99.90;;;;;;7279421;32;20175;-57
2023/07/30 01:52:38;;;;;;;6.75;3.72;;;14.50;99.90;;;;;;7286757;32;20112;-57
2023/07/30 01:56:40;;;;;;;5.43;3.47;;;14.60;99.90;;;;;;7285974;32;20150;-58
2023/07/30 02:00:42;;;;;;;9.50;3.53;;;14.70;99.90;;;;;;7285214;32;20231;-58
2023/07/30 02:04:44;;;;;;;10.68;3.40;;;14.70;99.90;;;;;;7282955;32;20577;-56
2023/07/30 02:08:46;;;;;;;9.93;3.22;;;14.70;99.90;;;;;;7272731;32;20247;-57
2023/07/30 02:12:47;;;;;;;8.60;3.12;;;14.60;99.90;;;;;;7291257;32;20276;-56
2023/07/30 02:16:49;;;;;;;7.18;3.25;;;14.60;99.90;;;;;;7295243;32;20789;-57
2023/07/30 02:20:51;;;;;;;6.32;3.25;;;14.50;99.90;;;;;;7294121;32;20205;-57
2023/07/30 02:24:53;;;;;;;12.80;3.20;;;14.50;99.90;;;;;;7284622;32;20219;-57
2023/07/30 02:28:54;;;;;;;10.60;3.65;;;14.40;99.90;;;;;;7274824;32;20149;-56
2023/07/30 02:32:56;;;;;;;8.88;3.72;;;14.30;99.90;;;;;;7278252;32;20103;-57
2023/07/30 02:36:58;;;;;;;11.32;3.65;;;14.40;99.90;;;;;;7283544;32;20757;-58
2023/07/30 02:41:00;;;;;;;6.68;2.90;;;14.40;99.90;;;;;;7288583;32;20530;-57
2023/07/30 02:45:01;;;;;;;8.30;3.42;;;14.30;99.90;;;;;;7282218;32;20254;-57
2023/07/30 02:49:03;;;;;;;11.55;3.78;;;14.30;99.90;;;;;;7280545;32;20230;-58
2023/07/30 02:53:05;;;;;;;13.02;3.37;;;14.30;99.90;;;;;;7287637;32;20231;-57
2023/07/30 02:57:07;;;;;;;9.75;3.20;;;14.20;99.90;;;;;;7291098;32;20195;-56
2023/07/30 03:01:09;;;;;;;9.05;3.47;;;14.20;99.90;;;;;;7274245;32;20329;-57
2023/07/30 03:05:11;;;;;;;5.82;3.40;;;14.10;99.90;;;;;;7286046;32;20105;-58
2023/07/30 03:09:13;;;;;;;8.30;3.30;;;14.00;99.90;;;;;;7296006;32;20688;-56
2023/07/30 03:13:14;;;;;;;7.37;3.05;;;14.00;99.90;;;;;;7286872;32;20614;-57
2023/07/30 03:17:16;;;;;;;9.07;3.58;;;14.00;99.90;;;;;;7275080;32;20723;-58
2023/07/30 03:21:18;;;;;;;6.80;3.58;;;13.90;99.90;;;;;;7286852;32;20152;-57
2023/07/30 03:25:19;;;;;;;6.28;3.97;;;13.80;99.90;;;;;;7282830;32;20108;-57
2023/07/30 03:29:21;;;;;;;8.45;3.35;;;13.70;99.90;;;;;;7291795;32;20764;-57
2023/07/30 03:33:24;;;;;;;6.53;3.28;;;13.70;99.90;;;;;;7290947;32;20884;-57
2023/07/30 03:37:26;;;;;;;7.43;3.45;;;13.60;99.90;;;;;;7282855;32;20161;-57
2023/07/30 03:41:28;;;;;;;12.55;3.95;;;13.70;99.90;;;;;;7286534;32;20119;-56
2023/07/30 03:45:29;;;;;;;8.77;3.50;;;13.80;99.90;;;;;;7288132;32;20172;-57
2023/07/30 03:49:31;;;;;;;13.80;4.10;;;13.80;99.90;;;;;;7283024;32;20179;-57
2023/07/30 03:53:33;;;;;;;13.55;3.37;;;13.90;99.90;;;;;;7286512;32;20183;-58
2023/07/30 03:57:35;;;;;;;12.00;3.62;;;13.80;99.90;;;;;;7282812;32;20320;-57
2023/07/30 04:01:36;;;;;;;6.65;3.33;;;13.80;99.90;;;;;;7284042;32;20189;-57
2023/07/30 04:05:38;;;;;;;8.75;4.12;;;13.80;99.90;;;;;;7294266;32;20154;-57
2023/07/30 04:09:40;;;;;;;11.30;4.12;;;13.80;99.90;;;;;;7280065;32;20239;-57
2023/07/30 04:13:42;;;;;;;10.30;3.80;;;13.90;99.90;;;;;;7279445;32;20122;-57
2023/07/30 04:17:44;;;;;;;12.75;4.10;;;13.90;99.90;;;;;;7276008;32;20169;-57
2023/07/30 04:21:46;;;;;;;9.18;4.45;;;14.00;99.90;;;;;;7287025;32;20122;-57
2023/07/30 04:25:51;;;;;;;10.35;3.78;;;14.10;99.90;;;;;;7283454;32;20101;-56
2023/07/30 04:29:53;;;;;;;11.90;4.30;;;14.20;99.90;;;;;;7280821;32;20172;-57
2023/07/30 04:33:54;;;;;;;11.30;3.72;;;14.30;99.90;;;;;;7286100;32;20128;-58
2023/07/30 04:37:56;;;;;;;10.07;3.65;;;14.40;99.90;;;;;;7286875;32;20154;-57
2023/07/30 04:41:58;;;;;;;9.77;3.95;;;14.40;99.90;;;;;;7291993;32;20206;-57
2023/07/30 04:46:00;;;;;;;9.80;4.20;;;14.50;99.90;;;;;;7287555;32;20127;-56
2023/07/30 04:50:01;;;;;;;11.40;3.60;;;14.60;99.90;;;;;;7290600;32;20116;-56
2023/07/30 04:54:03;;;;;;;12.60;4.07;;;14.70;99.90;;;;;;7282457;32;20222;-57
2023/07/30 04:58:05;;;;;;;11.90;3.67;;;14.70;99.90;;;;;;7284841;32;20160;-57
2023/07/30 05:02:07;;;;;;;9.45;3.50;;;14.70;99.90;;;;;;7285543;32;20120;-57
2023/07/30 05:06:09;;;;;;;8.88;3.50;;;14.70;99.90;;;;;;7262793;32;20112;-56
2023/07/30 05:10:10;;;;;;;10.02;3.28;;;14.70;99.90;;;;;;7283084;32;20326;-55
2023/07/30 05:14:12;;;;;;;8.13;3.83;;;14.80;99.90;;;;;;7281675;32;20175;-56
2023/07/30 05:18:14;;;;;;;8.40;3.12;;;14.80;99.90;;;;;;7276879;32;20281;-56
2023/07/30 05:22:16;;;;;;;12.20;2.97;;;14.80;99.90;;;;;;7265446;32;20107;-55
2023/07/30 05:26:17;;;;;;;8.65;2.50;;;14.80;99.90;;;;;;7279789;32;20253;-55
2023/07/30 05:30:19;;;;;;;10.25;3.00;;;14.80;99.90;;;;;;7281960;32;20123;-56
2023/07/30 05:34:21;;;;;;;10.98;2.92;;;14.90;99.90;;;;;;7281625;32;20186;-56
2023/07/30 05:38:22;;;;;;;9.52;2.45;;;14.80;99.90;;;;;;7280609;32;20120;-56
2023/07/30 05:42:24;;;;;;;7.53;1.92;;;14.90;99.90;;;;;;7262232;32;20262;-56
2023/07/30 05:46:26;;;;;;;11.68;1.65;;;14.80;99.90;;;;;;7281935;32;20099;-55
2023/07/30 05:50:27;;;;;;;8.23;1.85;;;14.70;99.90;;;;;;7283203;32;20283;-55
2023/07/30 05:54:29;;;;;;;7.70;1.58;;;14.70;99.90;;;;;;7282889;32;20596;-57
2023/07/30 05:58:31;;;;;;;8.27;2.00;;;14.70;99.90;;;;;;7284731;32;20718;-55
2023/07/30 06:02:33;;;;;;;7.22;1.58;;;14.70;99.90;;;;;;7288404;32;20187;-56
2023/07/30 06:06:34;;;;;;;6.68;1.62;;;14.80;99.90;;;;;;7279028;32;20209;-55
2023/07/30 06:10:40;;;;;;;9.48;1.85;;;14.90;99.90;;;;;;7281889;32;20122;-56
2023/07/30 06:14:42;;;;;;;6.25;1.60;;;14.80;99.90;;;;;;7286084;32;20126;-56
2023/07/30 06:18:44;;;;;;;8.75;1.92;;;14.90;99.90;;;;;;7290995;32;20182;-56
2023/07/30 06:22:45;;;;;;;5.32;1.37;;;14.90;99.90;;;;;;7275921;32;20109;-56
2023/07/30 06:26:47;;;;;;;6.97;1.40;;;14.90;99.90;;;;;;7277167;32;20200;-56
2023/07/30 06:30:49;;;;;;;10.25;1.85;;;15.00;99.90;;;;;;7293257;32;20170;-56
2023/07/30 06:34:50;;;;;;;7.25;1.45;;;15.10;99.90;;;;;;7283985;32;20254;-57
2023/07/30 06:38:52;;;;;;;10.30;1.85;;;15.10;99.90;;;;;;7283003;32;20100;-56
2023/07/30 06:42:54;;;;;;;11.98;1.73;;;15.10;99.90;;;;;;7288129;32;20105;-56
2023/07/30 06:46:56;;;;;;;8.23;1.62;;;15.20;99.90;;;;;;7281565;32;20122;-57
2023/07/30 06:50:57;;;;;;;10.57;1.65;;;15.30;99.90;;;;;;7284912;32;20124;-56
2023/07/30 06:54:59;;;;;;;9.25;1.95;;;15.30;99.90;;;;;;7275051;32;20375;-55
2023/07/30 06:59:02;;;;;;;5.93;1.58;;;15.40;99.90;;;;;;7285749;32;20253;-54
2023/07/30 07:03:04;;;;;;;7.40;1.77;;;15.50;99.90;;;;;;7284963;32;20104;-55
2023/07/30 07:07:06;;;;;;;10.30;1.67;;;15.50;99.90;;;;;;7281751;32;20850;-53
2023/07/30 07:11:08;;;;;;;12.13;2.17;;;15.60;99.90;;;;;;7282294;32;20101;-54
2023/07/30 07:15:10;;;;;;;7.47;1.73;;;15.70;99.90;;;;;;7275868;32;20221;-54
2023/07/30 07:19:11;;;;;;;8.32;1.50;;;15.70;99.90;;;;;;7280080;32;20108;-57
2023/07/30 07:23:13;;;;;;;6.72;1.70;;;15.70;99.90;;;;;;7290279;32;20195;-56
2023/07/30 07:27:15;;;;;;;7.75;2.15;;;15.70;99.90;;;;;;7277365;32;20192;-56
2023/07/30 07:31:16;;;;;;;8.25;1.80;;;15.80;99.90;;;;;;7293260;32;20556;-57
2023/07/30 07:35:22;;;;;;;9.48;2.58;;;15.80;99.90;;;;;;7286879;32;20116;-57
2023/07/30 07:39:24;;;;;;;11.88;2.33;;;15.90;99.90;;;;;;7287918;32;20111;-57
2023/07/30 07:43:26;;;;;;;14.02;2.40;;;15.90;99.90;;;;;;7284561;32;20092;-57
2023/07/30 07:47:28;;;;;;;12.45;2.20;;;16.10;99.90;;;;;;7284738;32;20099;-56
2023/07/30 07:51:30;;;;;;;11.15;2.87;;;16.30;99.90;;;;;;7282366;32;20494;-57
2023/07/30 07:55:32;;;;;;;13.45;2.40;;;16.30;99.90;;;;;;7288302;32;20108;-57
2023/07/30 07:59:34;;;;;;;10.95;2.65;;;16.40;99.90;;;;;;7288385;32;20104;-57
2023/07/30 08:03:35;;;;;;;12.13;2.80;;;16.40;99.90;;;;;;7280391;32;20685;-54
2023/07/30 08:07:37;;;;;;;11.38;2.70;;;16.30;99.90;;;;;;7277006;32;20591;-53
2023/07/30 08:11:39;;;;;;;10.73;2.72;;;16.30;99.90;;;;;;7285046;32;20218;-55
2023/07/30 08:15:41;;;;;;;12.65;2.37;;;16.40;99.90;;;;;;7281504;32;20202;-57
2023/07/30 08:19:43;;;;;;;12.05;2.55;;;16.50;99.90;;;;;;7283854;32;20132;-57
2023/07/30 08:23:46;;;;;;;12.85;2.72;;;16.50;99.90;;;;;;7283457;32;20218;-58
2023/07/30 08:27:48;;;;;;;8.75;2.17;;;16.50;99.90;;;;;;7289777;32;20462;-56
2023/07/30 08:31:49;;;;;;;11.35;2.45;;;16.50;99.90;;;;;;7279095;32;20281;-57
2023/07/30 08:35:55;;;;;;;12.27;2.30;;;16.60;99.90;;;;;;7282684;32;20306;-57
2023/07/30 08:39:57;;;;;;;14.65;3.00;;;16.80;99.90;;;;;;7283223;32;20242;-56
2023/07/30 08:43:59;;;;;;;14.73;2.87;;;17.00;99.90;;;;;;7282711;32;20679;-57
2023/07/30 08:48:01;;;;;;;17.25;2.72;;;17.20;99.90;;;;;;7279740;32;20166;-58
2023/07/30 08:52:03;;;;;;;18.52;3.15;;;17.40;99.90;;;;;;7277490;32;20116;-57
2023/07/30 08:56:05;;;;;;;15.30;3.05;;;17.30;99.90;;;;;;7278140;32;20804;-57
2023/07/30 09:00:09;;;;;;;15.15;2.92;;;17.50;99.90;;;;;;7280382;32;20100;-57
2023/07/30 09:04:11;;;;;;;12.05;2.40;;;17.60;99.90;;;;;;7278816;32;20203;-58
2023/07/30 09:08:14;;;;;;;15.45;3.03;;;17.60;99.90;;;;;;7280223;32;20318;-58
2023/07/30 09:12:16;;;;;;;16.50;3.78;;;17.60;99.90;;;;;;7279914;32;20889;-57
2023/07/30 09:16:17;;;;;;;14.60;2.42;;;18.00;99.90;;;;;;7287432;32;20127;-57
2023/07/30 09:20:19;;;;;;;11.73;2.50;;;18.30;99.90;;;;;;7279854;32;20470;-56
2023/07/30 09:24:22;;;;;;;9.27;2.40;;;19.00;99.90;;;;;;7279920;32;20226;-57
2023/07/30 09:28:31;;;;;;;9.02;1.95;;;19.10;99.90;;;;;;7283657;32;20191;-57
2023/07/30 09:32:34;;;;;;;8.30;2.00;;;19.50;99.90;;;;;;7284856;32;20158;-57
2023/07/30 09:36:36;;;;;;;15.55;3.08;;;19.70;99.90;;;;;;7281464;32;20104;-57
2023/07/30 09:40:38;;;;;;;6.90;1.75;;;20.40;99.90;;;;;;7283555;32;20217;-57
2023/07/30 09:44:40;;;;;;;11.48;2.08;;;21.10;99.90;;;;;;7284769;32;20107;-58
2023/07/30 09:48:42;;;;;;;7.43;1.92;;;21.20;99.90;;;;;;7280740;32;20398;-58
2023/07/30 09:52:44;;;;;;;8.50;1.65;;;21.60;99.90;;;;;;7276176;32;20170;-57
2023/07/30 09:56:46;;;;;;;9.43;1.60;;;21.70;99.90;;;;;;7284588;32;20370;-58
2023/07/30 10:00:49;;;;;;;13.55;2.45;;;22.10;99.90;;;;;;7268886;32;20134;-56
2023/07/30 10:04:56;;;;;;;7.37;1.73;;;22.20;99.90;;;;;;7288732;32;20541;-56
2023/07/30 10:08:59;;;;;;;10.70;1.95;;;21.70;99.90;;;;;;7287855;32;20340;-57
2023/07/30 10:13:09;;;;;;;10.60;1.77;;;21.30;99.90;;;;;;7287302;32;20588;-56
2023/07/30 10:17:11;;;;;;;6.55;1.70;;;21.10;99.90;;;;;;7292834;32;20104;-57
2023/07/30 10:21:23;;;;;;;7.22;1.75;;;21.20;99.90;;;;;;7287787;32;20938;-57
2023/07/30 10:25:30;;;;;;;9.25;1.52;;;20.90;99.90;;;;;;7287534;32;20117;-56
2023/07/30 10:29:35;;;;;;;8.07;1.83;;;21.00;99.90;;;;;;7291379;32;20108;-57
2023/07/30 10:33:44;;;;;;;6.50;1.70;;;20.80;99.90;;;;;;7283569;32;20165;-56
2023/07/30 10:37:47;;;;;;;7.55;1.48;;;20.30;99.90;;;;;;7283335;32;20197;-57
2023/07/30 10:41:50;;;;;;;8.95;1.80;;;20.10;99.90;;;;;;7282459;32;20278;-57
2023/07/30 10:45:52;;;;;;;7.12;1.65;;;20.40;99.90;;;;;;7286125;32;20112;-58
2023/07/30 10:50:02;;;;;;;7.65;1.77;;;20.70;99.90;;;;;;7281641;32;20214;-58
2023/07/30 10:54:06;;;;;;;7.70;1.50;;;20.70;99.90;;;;;;7285373;32;20506;-58
2023/07/30 10:58:08;;;;;;;10.00;1.40;;;20.90;99.90;;;;;;7290361;32;20119;-56
2023/07/30 11:02:12;;;;;;;4.65;1.30;;;21.30;99.90;;;;;;7286223;32;20523;-56
2023/07/30 11:06:13;;;;;;;7.05;1.00;;;20.80;99.90;;;;;;7280914;32;20113;-57
2023/07/30 11:10:15;;;;;;;6.85;1.50;;;20.40;99.90;;;;;;7283060;32;20143;-57
2023/07/30 11:14:25;;;;;;;7.65;1.23;;;20.30;99.90;;;;;;7291462;32;20386;-57
2023/07/30 11:18:32;;;;;;;7.12;1.37;;;20.20;99.90;;;;;;7280059;32;20124;-57
2023/07/30 11:22:35;;;;;;;4.80;1.10;;;20.40;99.90;;;;;;7286652;32;20872;-55
2023/07/30 11:26:37;;;;;;;10.23;1.50;;;20.90;99.90;;;;;;7293790;32;20108;-56
2023/07/30 11:30:39;;;;;;;6.93;1.33;;;20.90;99.90;;;;;;7293758;32;20483;-57
2023/07/30 11:34:41;;;;;;;8.05;1.30;;;20.50;99.90;;;;;;7269945;32;20104;-57
2023/07/30 11:38:43;;;;;;;6.65;1.35;;;20.50;99.90;;;;;;7283349;32;20185;-57
2023/07/30 11:42:45;;;;;;;8.18;1.50;;;20.70;99.90;;;;;;7287105;32;20154;-57
2023/07/30 11:46:54;;;;;;;7.75;1.35;;;20.70;99.90;;;;;;7282631;32;20677;-56
2023/07/30 11:50:56;;;;;;;5.80;1.30;;;20.80;99.90;;;;;;7286932;32;20194;-57
2023/07/30 11:55:04;;;;;;;6.07;1.30;;;21.10;99.90;;;;;;7272980;32;20510;-57
2023/07/30 11:59:07;;;;;;;5.65;1.08;;;21.00;99.90;;;;;;7277587;32;20462;-57
2023/07/30 12:03:12;;;;;;;5.15;1.10;;;21.00;99.90;;;;;;7287677;32;20521;-56
2023/07/30 12:07:23;;;;;;;6.15;1.25;;;20.70;99.90;;;;;;7278954;32;20157;-55
2023/07/30 12:11:25;;;;;;;5.40;1.08;;;20.50;99.90;;;;;;7286377;32;20100;-57
2023/07/30 12:15:29;;;;;;;6.57;1.10;;;20.50;99.90;;;;;;7284434;32;20234;-55
2023/07/30 12:19:31;;;;;;;9.60;1.10;;;20.50;99.90;;;;;;7290472;32;20118;-57
2023/07/30 12:23:34;;;;;;;5.60;1.08;;;20.90;99.90;;;;;;7285506;32;20096;-57
2023/07/30 12:27:35;;;;;;;7.87;1.23;;;20.80;99.90;;;;;;7282819;32;20188;-55
2023/07/30 12:31:37;;;;;;;3.70;0.60;;;20.80;99.90;;;;;;7273254;32;20147;-56
2023/07/30 12:35:39;;;;;;;4.72;0.80;;;20.70;99.90;;;;;;7275474;32;20116;-57
2023/07/30 12:39:41;;;;;;;4.03;0.90;;;20.60;99.90;;;;;;7281307;32;20509;-57
2023/07/30 12:43:43;;;;;;;3.92;0.80;;;20.50;99.90;;;;;;7279992;32;20228;-56
2023/07/30 12:47:45;;;;;;;2.45;0.80;;;20.50;99.90;;;;;;7286518;32;20872;-57
2023/07/30 12:51:47;;;;;;;3.25;0.85;;;20.50;99.90;;;;;;7283321;32;20596;-57
2023/07/30 12:55:51;;;;;;;4.75;1.17;;;21.10;99.90;;;;;;7278666;32;20160;-56
2023/07/30 12:59:53;;;;;;;6.90;0.90;;;21.40;99.90;;;;;;7279137;32;20104;-57
2023/07/30 13:03:54;;;;;;;4.05;0.88;;;21.40;99.90;;;;;;7283824;32;20109;-58
2023/07/30 13:07:56;;;;;;;6.53;0.80;;;21.80;99.90;;;;;;7273984;32;20144;-56
2023/07/30 13:11:58;;;;;;;2.42;0.57;;;21.80;99.90;;;;;;7279120;32;20495;-57
2023/07/30 13:16:01;;;;;;;3.90;0.90;;;21.40;99.90;;;;;;7282778;32;20632;-57
2023/07/30 13:20:03;;;;;;;4.12;0.90;;;21.20;99.90;;;;;;7277428;32;20138;-57
2023/07/30 13:24:05;;;;;;;2.87;0.85;;;21.20;99.90;;;;;;7281347;32;20134;-56
2023/07/30 13:28:07;;;;;;;5.62;1.25;;;21.50;99.90;;;;;;7279151;32;20565;-57
2023/07/30 13:32:09;;;;;;;4.97;1.10;;;21.70;99.90;;;;;;7275592;32;20124;-57
2023/07/30 13:36:11;;;;;;;5.75;1.27;;;21.80;99.90;;;;;;7279841;32;20762;-57
2023/07/30 13:40:13;;;;;;;7.62;1.10;;;21.90;99.90;;;;;;7277440;32;20131;-58
2023/07/30 13:44:15;;;;;;;6.85;0.82;;;22.10;99.90;;;;;;7277202;32;20183;-57
2023/07/30 13:48:17;;;;;;;5.07;1.50;;;22.20;99.90;;;;;;7263435;32;20165;-57
2023/07/30 13:52:18;;;;;;;7.37;1.27;;;22.30;99.90;;;;;;7276922;32;20109;-59
2023/07/30 13:56:20;;;;;;;4.18;0.80;;;22.20;99.90;;;;;;7275635;32;20131;-57
2023/07/30 14:00:22;;;;;;;5.90;1.20;;;21.90;99.90;;;;;;7282200;32;20104;-58
2023/07/30 14:04:24;;;;;;;6.87;1.05;;;21.20;99.90;;;;;;7276824;32;20242;-58
2023/07/30 14:08:25;;;;;;;5.78;1.52;;;21.00;99.90;;;;;;7281684;32;20115;-57
2023/07/30 14:12:27;;;;;;;6.18;1.48;;;20.90;99.90;;;;;;7279616;32;20279;-57
2023/07/30 14:16:29;;;;;;;8.07;1.67;;;21.00;99.90;;;;;;7279042;32;20149;-57
2023/07/30 14:20:30;;;;;;;5.97;1.40;;;20.90;99.90;;;;;;7282493;32;20109;-57
2023/07/30 14:24:32;;;;;;;6.03;1.30;;;20.90;99.90;;;;;;7278521;32;20101;-58
2023/07/30 14:28:34;;;;;;;7.30;1.40;;;20.90;99.90;;;;;;7275703;32;20479;-58
2023/07/30 14:32:36;;;;;;;5.43;1.10;;;21.40;99.90;;;;;;7275599;32;20692;-57
2023/07/30 14:36:37;;;;;;;3.87;1.00;;;21.70;99.90;;;;;;7281738;32;20580;-57
2023/07/30 14:40:39;;;;;;;4.43;1.00;;;21.60;99.90;;;;;;7283647;32;20100;-57
2023/07/30 14:44:41;;;;;;;6.15;1.10;;;21.50;99.90;;;;;;7277891;32;20708;-57
2023/07/30 14:48:43;;;;;;;7.20;1.10;;;21.50;99.90;;;;;;7281045;32;20709;-57
2023/07/30 14:52:45;;;;;;;5.90;1.35;;;21.30;99.90;;;;;;7281209;32;20172;-57
2023/07/30 14:56:47;;;;;;;8.73;1.33;;;21.30;99.90;;;;;;7277454;32;20127;-57
2023/07/30 15:00:49;;;;;;;8.10;1.75;;;21.20;99.90;;;;;;7281836;32;20128;-57
2023/07/30 15:04:50;;;;;;;7.97;1.23;;;21.00;99.90;;;;;;7280712;32;20359;-57
2023/07/30 15:08:52;;;;;;;6.72;1.40;;;21.00;99.90;;;;;;7282805;32;20096;-57
2023/07/30 15:12:54;;;;;;;7.18;1.67;;;21.30;99.90;;;;;;7291612;32;20191;-55
2023/07/30 15:16:56;;;;;;;6.18;1.25;;;22.00;99.90;;;;;;7283811;32;20099;-55
2023/07/30 15:20:58;;;;;;;5.72;1.30;;;22.30;99.90;;;;;;7289693;32;20195;-55
2023/07/30 15:25:00;;;;;;;4.55;1.05;;;22.00;99.90;;;;;;7280502;32;20192;-55
2023/07/30 15:29:01;;;;;;;8.30;1.00;;;21.90;99.90;;;;;;7287834;32;20549;-56
2023/07/30 15:33:03;;;;;;;7.22;1.40;;;21.80;99.90;;;;;;7282304;32;20108;-54
2023/07/30 15:37:05;;;;;;;3.58;1.00;;;21.70;99.90;;;;;;7280991;32;20757;-55
2023/07/30 15:41:07;;;;;;;7.32;1.20;;;21.40;99.90;;;;;;7284400;32;20147;-54
2023/07/30 15:45:09;;;;;;;5.28;1.00;;;21.30;99.90;;;;;;7285266;32;20549;-55
2023/07/30 15:49:11;;;;;;;3.70;0.82;;;21.60;99.90;;;;;;7278611;32;20415;-55
2023/07/30 15:53:12;;;;;;;6.87;1.48;;;22.00;99.90;;;;;;7285011;32;21011;-54
2023/07/30 15:57:14;;;;;;;7.97;1.30;;;22.10;99.90;;;;;;7290889;32;20527;-55
2023/07/30 16:01:16;;;;;;;3.20;1.10;;;22.10;99.90;;;;;;7279872;32;20213;-54
2023/07/30 16:05:18;;;;;;;6.18;1.30;;;21.90;99.90;;;;;;7285649;32;20194;-54
2023/07/30 16:09:20;;;;;;;5.07;1.50;;;21.90;99.90;;;;;;7284550;32;20112;-53
2023/07/30 16:13:22;;;;;;;6.18;1.30;;;22.10;99.90;;;;;;7285086;32;20264;-54
2023/07/30 16:17:24;;;;;;;7.07;1.20;;;21.90;99.90;;;;;;7284189;32;20130;-54
2023/07/30 16:21:26;;;;;;;4.28;1.08;;;21.90;99.90;;;;;;7281693;32;20241;-54
2023/07/30 16:25:28;;;;;;;3.45;1.10;;;21.80;99.90;;;;;;7280091;32;20247;-56
2023/07/30 16:29:30;;;;;;;4.05;1.27;;;21.50;99.90;;;;;;7277617;32;20595;-56
2023/07/30 16:33:31;;;;;;;6.57;1.45;;;21.30;99.90;;;;;;7281136;32;20097;-57
2023/07/30 16:37:33;;;;;;;6.97;1.58;;;21.30;99.90;;;;;;7281802;32;20253;-56
2023/07/30 16:41:35;;;;;;;5.72;1.33;;;21.40;99.90;;;;;;7285544;32;20722;-56
2023/07/30 16:45:37;;;;;;;6.05;1.25;;;21.30;99.90;;;;;;7289515;32;20104;-56
2023/07/30 16:49:39;;;;;;;5.72;1.40;;;21.30;99.90;;;;;;7280798;32;20195;-56
2023/07/30 16:53:40;;;;;;;6.68;1.40;;;21.20;99.90;;;;;;7278692;32;20151;-56
2023/07/30 16:57:42;;;;;;;3.83;1.45;;;21.10;99.90;;;;;;7285037;32;20265;-58
2023/07/30 17:01:44;;;;;;;6.25;1.50;;;21.10;99.90;;;;;;7284959;32;20191;-57
2023/07/30 17:05:45;;;;;;;5.35;1.20;;;21.00;99.90;;;;;;7285796;32;20249;-57
2023/07/30 17:09:47;;;;;;;5.55;2.22;;;21.00;99.90;;;;;;7278886;32;20107;-57
2023/07/30 17:13:50;;;;;;;6.37;2.53;;;20.90;99.90;;;;;;7282812;32;20202;-56
2023/07/30 17:17:52;;;;;;;5.35;2.10;;;20.90;99.90;;;;;;7291104;32;20574;-57
2023/07/30 17:21:54;;;;;;;3.35;1.40;;;20.90;99.90;;;;;;7297428;32;20128;-58
2023/07/30 17:25:58;;;;;;;8.07;1.35;;;20.90;99.90;;;;;;7277680;32;20201;-57
2023/07/30 17:30:00;;;;;;;3.45;1.12;;;20.90;99.90;;;;;;7271092;32;20555;-56
2023/07/30 17:34:02;;;;;;;5.35;1.10;;;20.70;99.90;;;;;;7278177;32;20690;-56
2023/07/30 17:38:04;;;;;;;6.65;1.30;;;20.70;99.90;;;;;;7279800;32;20122;-57
2023/07/30 17:42:05;;;;;;;6.43;1.50;;;20.60;99.90;;;;;;7285316;32;20206;-56
2023/07/30 17:46:09;;;;;;;7.18;2.12;;;20.60;99.90;;;;;;7275146;32;20341;-57
2023/07/30 17:50:11;;;;;;;3.17;0.98;;;20.70;99.90;;;;;;7275169;32;20121;-56
2023/07/30 17:54:12;;;;;;;5.25;1.73;;;20.40;99.90;;;;;;7287465;32;20167;-56
2023/07/30 17:58:14;;;;;;;7.55;1.60;;;20.20;99.90;;;;;;7283597;32;20562;-54
2023/07/30 18:02:17;;;;;;;6.37;1.52;;;20.00;99.90;;;;;;7273385;32;20602;-56
2023/07/30 18:06:19;;;;;;;4.18;1.50;;;19.60;99.90;;;;;;7284606;32;20214;-56
2023/07/30 18:10:21;;;;;;;7.65;1.60;;;19.20;99.90;;;;;;7276706;32;20147;-57
2023/07/30 18:14:23;;;;;;;7.12;1.87;;;18.60;99.90;;;;;;7282092;32;20183;-57
2023/07/30 18:18:24;;;;;;;6.87;1.55;;;18.20;99.90;;;;;;7280556;32;20154;-57
2023/07/30 18:22:26;;;;;;;4.43;1.75;;;17.60;99.90;;;;;;7289592;32;20786;-57
2023/07/30 18:26:28;;;;;;;12.37;2.33;;;17.30;99.90;;;;;;7279886;32;20120;-56
2023/07/30 18:30:30;;;;;;;7.53;2.72;;;16.90;99.90;;;;;;7289772;32;20310;-57
2023/07/30 18:34:34;;;;;;;10.00;2.50;;;16.60;99.90;;;;;;7282290;32;20149;-56
2023/07/30 18:38:36;;;;;;;10.00;3.12;;;16.60;99.90;;;;;;7286517;32;20158;-57
2023/07/30 18:42:38;;;;;;;8.88;2.10;;;16.40;99.90;;;;;;7285162;32;20504;-56
2023/07/30 18:46:41;;;;;;;6.40;2.45;;;16.40;99.90;;;;;;7281899;32;20278;-56
2023/07/30 18:50:42;;;;;;;9.57;2.30;;;16.40;99.90;;;;;;7276525;32;20157;-56
2023/07/30 18:54:44;;;;;;;7.85;2.30;;;16.30;99.90;;;;;;7282849;32;20183;-56
2023/07/30 18:58:46;;;;;;;4.70;2.03;;;16.30;99.90;;;;;;7287783;32;20188;-55
2023/07/30 19:02:48;;;;;;;6.12;1.83;;;16.30;99.90;;;;;;7289147;32;20179;-56
2023/07/30 19:06:50;;;;;;;7.57;2.20;;;16.20;99.90;;;;;;7289137;32;20199;-56
2023/07/30 19:10:52;;;;;;;5.18;2.40;;;16.30;99.90;;;;;;7287902;32;20124;-56
2023/07/30 19:14:54;;;;;;;10.27;3.00;;;16.30;99.90;;;;;;7285657;32;20217;-55
2023/07/30 19:18:55;;;;;;;7.32;2.87;;;16.30;99.90;;;;;;7277101;32;20092;-57
2023/07/30 19:22:57;;;;;;;7.05;2.92;;;16.20;99.90;;;;;;7282768;32;20127;-58
2023/07/30 19:27:00;;;;;;;6.85;2.08;;;16.20;99.90;;;;;;7279235;32;20127;-59
2023/07/30 19:31:07;;;;;;;6.68;2.30;;;16.20;99.90;;;;;;7282234;32;20158;-57
2023/07/30 19:35:09;;;;;;;;;;;16.10;99.90;;;;;;7285306;32;20767;-55
2023/07/30 19:39:10;;;;;;;6.78;2.70;;;16.20;99.90;;;;;;7281732;32;20007;-55
2023/07/30 19:43:12;;;;;;;10.63;2.40;;;16.20;99.90;;;;;;7286564;32;20136;-56
2023/07/30 19:47:17;;;;;;;5.62;2.30;;;16.20;99.90;;;;;;7280697;32;20188;-57
2023/07/30 19:51:19;;;;;;;7.40;2.58;;;16.20;99.90;;;;;;7286583;32;20116;-57
2023/07/30 19:55:21;;;;;;;4.93;2.17;;;16.00;99.90;;;;;;7285272;32;20177;-57
2023/07/30 19:59:23;;;;;;;5.62;2.28;;;15.90;99.90;;;;;;7286662;32;20118;-55
2023/07/30 20:03:26;;;;;;;4.75;2.10;;;15.90;99.90;;;;;;7284834;32;20104;-56
2023/07/30 20:07:28;;;;;;;6.05;1.87;;;15.80;99.90;;;;;;7283147;32;20162;-57
2023/07/30 20:11:29;;;;;;;6.18;2.15;;;15.80;99.90;;;;;;7284527;32;20225;-57
2023/07/30 20:15:37;;;;;;;8.20;2.53;;;15.80;99.90;;;;;;7283546;32;20134;-58
2023/07/30 20:19:39;;;;;;;5.65;2.33;;;15.80;99.90;;;;;;7278342;32;20569;-57
2023/07/30 20:23:41;;;;;;;5.80;2.70;;;15.80;99.90;;;;;;7288409;32;20238;-57
2023/07/30 20:27:42;;;;;;;9.05;3.58;;;15.80;99.90;;;;;;7283972;32;20108;-57
2023/07/30 20:31:44;;;;;;;7.62;3.28;;;15.70;99.90;;;;;;7285486;32;20187;-57
2023/07/30 20:35:49;;;;;;;9.43;3.53;;;15.80;99.90;;;;;;7286082;32;20676;-56
2023/07/30 20:39:50;;;;;;;7.00;3.40;;;15.70;99.90;;;;;;7290992;32;20296;-57
2023/07/30 20:43:52;;;;;;;7.50;3.47;;;15.70;99.90;;;;;;7288756;32;20162;-57
2023/07/30 20:47:54;;;;;;;7.93;3.42;;;15.60;99.90;;;;;;7281024;32;20805;-56
2023/07/30 20:51:56;;;;;;;7.00;3.37;;;15.60;99.90;;;;;;7283141;32;20177;-56
2023/07/30 20:56:01;;;;;;;9.55;3.97;;;15.60;99.90;;;;;;7281901;32;20123;-55
2023/07/30 21:00:03;;;;;;;9.60;4.75;;;15.60;99.90;;;;;;7284443;32;20131;-55